Sebago, Maine
Current Conditions -  °F | °C
As of 3:54 AM on Tuesday 21 Oct 2014 (Local Time) from KIZG Reporting Station
Light Rain Light Rain  
Wind Chill: 40°   Ceiling: 5500
Heat Index: 40°   Visibility: 10mi
Dew Point: 37°   Wind: 0mph
Humidity: 89%   Direction: NA
Pressure: 30.01"   Gusts: NA
Location:  43.89°N, 70.7°W
Report Text: KIZG 210754Z AUTO 00000KT 10SM -RA BKN055 BKN070 OVC085 04/03 A3001 RMK AO2 RAB51 SLP163 P0000 T00440028
Loading
Personal Weather Stations






























Interactive Weather Map
Tropical Storm Tracking
New forecast layout! Learn more

10-Day Weather Forecast

Advertisements
Track Severe Weather on mobile